createdAt,value
2019-03-21T00:02:25.873Z,24.30
2019-03-21T00:07:30.613Z,25.23
2019-03-21T00:12:35.257Z,26.07
2019-03-21T00:17:43.071Z,24.80
2019-03-21T00:22:47.634Z,23.73
2019-03-21T00:27:53.891Z,25.23
2019-03-21T00:32:58.635Z,24.73
2019-03-21T00:38:06.140Z,25.37
2019-03-21T00:43:14.168Z,23.53
2019-03-21T00:48:20.953Z,23.50
2019-03-21T00:53:25.694Z,22.93
2019-03-21T00:58:30.274Z,25.23
2019-03-21T01:03:34.869Z,25.33
2019-03-21T01:08:40.129Z,23.13
2019-03-21T01:13:45.386Z,22.60
2019-03-21T01:18:50.638Z,24.27
2019-03-21T01:23:55.269Z,23.67
2019-03-21T01:29:01.674Z,24.37
2019-03-21T01:34:06.403Z,26.33
2019-03-21T01:39:11.041Z,25.70
2019-03-21T01:44:15.789Z,23.57
2019-03-21T01:49:22.605Z,24.20
2019-03-21T01:54:28.742Z,24.23
2019-03-21T01:59:33.401Z,23.30
2019-03-21T02:04:38.145Z,25.27
2019-03-21T02:09:43.909Z,24.80
2019-03-21T02:14:52.400Z,24.23
2019-03-21T02:19:57.284Z,24.43
2019-03-21T02:25:02.340Z,26.90
2019-03-21T02:30:19.002Z,27.33
2019-03-21T02:35:23.702Z,28.40
2019-03-21T02:40:28.444Z,26.87
2019-03-21T02:45:33.189Z,25.03
2019-03-21T02:50:43.622Z,23.23
2019-03-21T02:55:48.929Z,22.77
2019-03-21T03:00:53.679Z,21.57
2019-03-21T03:05:58.409Z,22.30
2019-03-21T03:11:06.122Z,23.27
2019-03-21T03:16:10.772Z,22.63
2019-03-21T03:21:16.837Z,23.87
2019-03-21T03:26:21.584Z,23.17
2019-03-21T03:31:26.332Z,22.10
2019-03-21T03:36:31.172Z,23.87
2019-03-21T03:41:35.909Z,21.93
2019-03-21T03:46:41.270Z,18.53
2019-03-21T03:51:46.633Z,19.13
2019-03-21T03:56:52.909Z,18.40
2019-03-21T04:01:57.650Z,16.73
2019-03-21T04:07:02.293Z,15.73
2019-03-21T04:12:07.850Z,14.90
2019-03-21T04:17:12.596Z,14.60
2019-03-21T04:22:17.362Z,14.77
2019-03-21T04:27:21.977Z,14.43
2019-03-21T04:32:26.824Z,19.20
2019-03-21T04:37:32.093Z,18.47
2019-03-21T04:42:36.721Z,17.50
2019-03-21T04:47:41.370Z,15.20
2019-03-21T04:52:46.106Z,13.73
2019-03-21T04:57:50.738Z,14.33
2019-03-21T05:03:02.331Z,14.90
2019-03-21T05:08:07.095Z,14.33
2019-03-21T05:13:15.013Z,14.33
2019-03-21T05:18:28.699Z,14.60
2019-03-21T05:23:34.950Z,15.27
2019-03-21T05:28:40.301Z,15.20
2019-03-21T05:33:45.045Z,13.63
2019-03-21T05:38:52.035Z,16.67
2019-03-21T05:44:03.847Z,19.23
2019-03-21T05:49:10.738Z,15.20
2019-03-21T05:54:15.657Z,15.20
2019-03-21T05:59:21.045Z,16.07
2019-03-21T06:04:26.012Z,14.90
2019-03-21T06:09:31.768Z,14.57
2019-03-21T06:14:41.322Z,13.40
2019-03-21T06:20:24.565Z,14.30
2019-03-21T06:25:47.432Z,13.27
2019-03-21T06:30:52.274Z,13.53
2019-03-21T06:35:57.635Z,14.10
2019-03-21T06:41:02.485Z,14.23
2019-03-21T06:46:07.224Z,16.13
2019-03-21T06:51:12.481Z,15.53
2019-03-21T06:56:18.260Z,15.47
2019-03-21T07:01:23.199Z,15.23
2019-03-21T07:06:28.966Z,13.63
2019-03-21T07:11:36.372Z,15.30
2019-03-21T07:16:41.521Z,14.87
2019-03-21T07:21:48.605Z,13.13
2019-03-21T07:26:53.462Z,13.87
2019-03-21T07:31:59.435Z,13.17
2019-03-21T07:37:04.398Z,12.87
2019-03-21T07:42:09.647Z,13.13
2019-03-21T07:47:14.381Z,13.90
2019-03-21T07:52:20.000Z,13.17
2019-03-21T07:57:25.112Z,14.67
2019-03-21T08:02:30.453Z,14.50
2019-03-21T08:07:35.196Z,15.10
2019-03-21T08:12:40.356Z,14.93
2019-03-21T08:17:45.013Z,13.63
2019-03-21T08:22:49.735Z,12.63
2019-03-21T08:27:54.294Z,13.60
2019-03-21T08:32:59.013Z,14.00
2019-03-21T08:38:03.654Z,12.70
2019-03-21T08:43:08.403Z,14.30
2019-03-21T08:48:12.987Z,18.57
2019-03-21T08:53:17.677Z,13.07
2019-03-21T08:58:22.259Z,13.30
2019-03-21T09:03:26.963Z,12.90
2019-03-21T09:08:31.723Z,25.57
2019-03-21T09:13:38.003Z,23.70
2019-03-21T09:18:42.835Z,17.13
2019-03-21T09:23:47.474Z,13.53
2019-03-21T09:28:52.214Z,24.10
2019-03-21T09:33:56.956Z,14.47
2019-03-21T09:39:01.703Z,14.10
2019-03-21T09:44:06.958Z,14.80
2019-03-21T09:49:11.703Z,15.60
2019-03-21T09:54:18.388Z,16.80
2019-03-21T09:59:24.875Z,51.10
2019-03-21T10:04:29.527Z,26.63
2019-03-21T10:09:34.262Z,41.03
2019-03-21T10:14:39.038Z,17.90
2019-03-21T10:19:43.866Z,14.73
2019-03-21T10:24:48.503Z,15.20
2019-03-21T10:29:53.230Z,32.37
2019-03-21T10:34:57.811Z,18.57
2019-03-21T10:40:02.513Z,16.27
2019-03-21T10:45:07.355Z,14.87
2019-03-21T10:50:15.376Z,15.40
2019-03-21T10:55:20.224Z,18.13
2019-03-21T11:00:25.170Z,14.17
2019-03-21T11:05:30.032Z,16.70
2019-03-21T11:10:34.755Z,15.13
2019-03-21T11:15:39.502Z,14.87
2019-03-21T11:20:44.245Z,26.17
2019-03-21T11:25:49.092Z,14.77
2019-03-21T11:30:53.836Z,15.63
2019-03-21T11:35:58.577Z,16.43
2019-03-21T11:41:03.202Z,15.00
2019-03-21T11:46:07.975Z,17.07
2019-03-21T11:51:12.608Z,16.50
2019-03-21T11:56:19.276Z,16.37
2019-03-21T12:01:23.629Z,15.57
2019-03-21T12:06:28.371Z,16.87
2019-03-21T12:11:33.112Z,16.73
2019-03-21T12:16:39.106Z,16.63
2019-03-21T12:21:43.630Z,16.37
2019-03-21T12:26:48.365Z,17.60
2019-03-21T12:31:53.173Z,16.57
2019-03-21T12:36:57.959Z,18.27
2019-03-21T12:42:02.705Z,16.43
2019-03-21T12:47:07.544Z,16.80
2019-03-21T12:52:12.192Z,18.50
2019-03-21T12:57:18.063Z,19.80
2019-03-21T13:02:32.066Z,16.43
2019-03-21T13:12:51.232Z,14.53
2019-03-21T13:17:55.973Z,15.13
2019-03-21T13:23:00.716Z,31.17
2019-03-21T13:28:05.460Z,19.10
2019-03-21T13:33:10.204Z,15.00
2019-03-21T13:38:14.901Z,14.63
2019-03-21T13:43:19.591Z,15.73
2019-03-21T13:48:24.329Z,14.30
2019-03-21T13:53:29.075Z,14.77
2019-03-21T13:58:33.839Z,15.37
2019-03-21T14:03:38.561Z,13.00
2019-03-21T14:08:43.306Z,12.60
2019-03-21T14:13:48.051Z,13.53
2019-03-21T14:18:52.790Z,13.30
2019-03-21T14:23:57.644Z,13.50
2019-03-21T14:29:12.263Z,12.97
2019-03-21T14:34:08.666Z,14.97
2019-03-21T14:39:14.535Z,13.40
2019-03-21T14:44:19.283Z,15.13
2019-03-21T14:49:24.057Z,13.77
2019-03-21T14:54:28.963Z,14.37
2019-03-21T14:59:33.768Z,15.87
2019-03-21T15:04:41.625Z,15.93
2019-03-21T15:09:46.368Z,15.77
2019-03-21T15:14:51.113Z,16.53
2019-03-21T15:19:55.858Z,16.80
2019-03-21T15:25:00.725Z,17.23
2019-03-21T15:30:08.505Z,16.87
2019-03-21T15:35:14.131Z,19.30
2019-03-21T15:40:19.195Z,18.33
2019-03-21T15:45:25.107Z,17.60
2019-03-21T15:50:37.713Z,18.67
2019-03-21T15:55:41.522Z,17.80
2019-03-21T16:00:46.412Z,18.03
2019-03-21T16:05:53.292Z,18.53
2019-03-21T16:10:58.330Z,18.30
2019-03-21T16:16:03.295Z,21.20
2019-03-21T16:21:08.060Z,30.77
2019-03-21T16:26:14.420Z,27.60
2019-03-21T16:31:19.465Z,24.53
2019-03-21T16:36:24.459Z,22.83
2019-03-21T16:41:30.288Z,23.13
2019-03-21T16:46:35.130Z,31.53
2019-03-21T16:51:41.510Z,19.70
2019-03-21T16:56:46.351Z,23.33
2019-03-21T17:01:52.741Z,15.43
2019-03-21T17:06:57.465Z,14.90
2019-03-21T17:12:02.231Z,16.10
2019-03-21T17:17:06.837Z,18.03
2019-03-21T17:22:12.430Z,18.90
2019-03-21T17:27:18.296Z,15.70
2019-03-21T17:32:23.035Z,15.53
2019-03-21T17:37:27.991Z,16.27
2019-03-21T17:42:32.963Z,16.33
2019-03-21T17:47:37.903Z,20.63
2019-03-21T17:52:42.523Z,23.33
2019-03-21T17:57:47.982Z,18.67
2019-03-21T18:02:53.167Z,19.00
2019-03-21T18:07:57.880Z,19.03
2019-03-21T18:13:02.932Z,17.20
2019-03-21T18:18:07.879Z,19.73
2019-03-21T18:23:14.852Z,21.73
2019-03-21T18:28:19.791Z,22.17
2019-03-21T18:33:24.463Z,24.50
2019-03-21T18:38:29.206Z,20.63
2019-03-21T18:43:33.946Z,20.00
2019-03-21T18:48:40.228Z,18.87
2019-03-21T18:53:44.971Z,18.07
2019-03-21T18:58:50.020Z,21.80
2019-03-21T19:03:55.553Z,26.00
2019-03-21T19:09:00.249Z,25.00
2019-03-21T19:14:05.734Z,24.87
2019-03-21T19:19:10.752Z,21.40
2019-03-21T19:24:16.466Z,17.83
2019-03-21T19:29:21.361Z,19.47
2019-03-21T19:34:27.172Z,22.13
2019-03-21T19:39:33.147Z,20.43
2019-03-21T19:44:37.975Z,19.23
2019-03-21T19:49:42.756Z,16.97
2019-03-21T19:54:49.787Z,20.17
2019-03-21T19:59:54.726Z,19.07
2019-03-21T20:04:59.789Z,18.67
2019-03-21T20:10:06.590Z,20.57
2019-03-21T20:15:13.296Z,25.37
2019-03-21T20:20:18.745Z,33.13
2019-03-21T20:25:23.885Z,28.03
2019-03-21T20:30:28.613Z,24.00
2019-03-21T20:35:33.249Z,22.27
2019-03-21T20:40:39.209Z,24.37
2019-03-21T20:45:44.069Z,23.23
2019-03-21T20:50:48.810Z,22.73
2019-03-21T20:55:54.055Z,31.90
2019-03-21T21:00:58.905Z,29.57
2019-03-21T21:06:03.554Z,36.47
2019-03-21T21:11:08.395Z,33.50
2019-03-21T21:16:13.135Z,28.30
2019-03-21T21:21:17.776Z,24.33
2019-03-21T21:26:22.557Z,21.83
2019-03-21T21:31:27.263Z,22.83
2019-03-21T21:36:32.006Z,21.80
2019-03-21T21:41:36.655Z,21.20
2019-03-21T21:46:41.392Z,22.40
2019-03-21T21:51:46.244Z,29.33
2019-03-21T21:56:52.118Z,33.70
2019-03-21T22:01:56.745Z,26.10
2019-03-21T22:07:01.384Z,33.10
2019-03-21T22:12:06.027Z,32.90
2019-03-21T22:17:10.667Z,26.17
2019-03-21T22:22:15.299Z,24.90
2019-03-21T22:27:21.073Z,22.50
2019-03-21T22:32:25.814Z,26.27
2019-03-21T22:37:30.456Z,27.57
2019-03-21T22:42:35.096Z,22.67
2019-03-21T22:47:39.879Z,23.90
2019-03-21T22:52:45.115Z,24.23
2019-03-21T22:57:49.940Z,27.13
2019-03-21T23:02:54.527Z,26.93
2019-03-21T23:07:59.112Z,24.53
2019-03-21T23:13:03.647Z,26.07
2019-03-21T23:18:08.301Z,24.40
2019-03-21T23:23:12.861Z,22.20
2019-03-21T23:28:17.576Z,23.10
2019-03-21T23:33:22.374Z,21.77
2019-03-21T23:38:26.966Z,19.87
2019-03-21T23:43:31.704Z,29.03
2019-03-21T23:48:36.452Z,20.50
2019-03-21T23:53:41.187Z,22.70
2019-03-21T23:58:45.935Z,21.87
